createdAt,value
2018-11-22T00:00:37.842Z,11.35
2018-11-22T00:03:07.730Z,10.85
2018-11-22T00:05:37.356Z,9.70
2018-11-22T00:08:07.631Z,9.70
2018-11-22T00:10:36.978Z,11.40
2018-11-22T00:13:06.937Z,9.23
2018-11-22T00:15:37.040Z,9.73
2018-11-22T00:18:07.894Z,11.00
2018-11-22T00:20:38.152Z,10.68
2018-11-22T00:23:08.329Z,10.30
2018-11-22T00:25:38.013Z,11.08
2018-11-22T00:28:08.375Z,9.95
2018-11-22T00:30:37.766Z,10.45
2018-11-22T00:33:07.431Z,10.47
2018-11-22T00:35:37.092Z,10.48
2018-11-22T00:38:06.839Z,10.05
2018-11-22T00:40:36.185Z,9.70
2018-11-22T00:43:06.371Z,9.18
2018-11-22T00:45:35.789Z,11.85
2018-11-22T00:48:05.551Z,10.20
2018-11-22T00:50:35.572Z,9.23
2018-11-22T00:53:05.293Z,9.48
2018-11-22T00:55:34.945Z,11.70
2018-11-22T00:58:04.281Z,11.73
2018-11-22T01:00:34.327Z,11.55
2018-11-22T01:03:04.635Z,9.68
2018-11-22T01:05:34.957Z,9.18
2018-11-22T01:08:04.704Z,11.35
2018-11-22T01:10:34.777Z,11.20
2018-11-22T01:13:04.115Z,10.53
2018-11-22T01:15:33.823Z,10.72
2018-11-22T01:18:03.487Z,10.90
2018-11-22T01:20:32.864Z,10.38
2018-11-22T01:23:02.644Z,9.67
2018-11-22T01:25:32.599Z,10.80
2018-11-22T01:28:02.645Z,11.45
2018-11-22T01:30:32.748Z,9.23
2018-11-22T01:33:03.082Z,11.40
2018-11-22T01:35:32.831Z,10.32
2018-11-22T01:38:02.664Z,10.80
2018-11-22T01:40:32.722Z,9.88
2018-11-22T01:43:02.461Z,9.50
2018-11-22T01:45:32.139Z,10.25
2018-11-22T01:48:02.122Z,11.12
2018-11-22T01:50:31.470Z,9.90
2018-11-22T01:53:01.158Z,12.03
2018-11-22T01:55:31.437Z,11.03
2018-11-22T01:58:01.502Z,11.22
2018-11-22T02:00:31.552Z,10.45
2018-11-22T02:03:01.185Z,9.48
2018-11-22T02:05:30.520Z,9.83
2018-11-22T02:08:00.564Z,10.53
2018-11-22T02:10:30.575Z,9.95
2018-11-22T02:13:00.638Z,9.15
2018-11-22T02:15:30.705Z,10.85
2018-11-22T02:18:00.682Z,9.88
2018-11-22T02:20:30.688Z,10.63
2018-11-22T02:23:00.105Z,9.23
2018-11-22T02:25:30.159Z,10.55
2018-11-22T02:28:00.283Z,10.38
2018-11-22T02:30:29.671Z,11.70
2018-11-22T02:33:00.669Z,10.50
2018-11-22T02:35:30.694Z,10.05
2018-11-22T02:38:00.512Z,10.30
2018-11-22T02:40:30.550Z,9.80
2018-11-22T02:43:01.083Z,10.27
2018-11-22T02:45:31.382Z,10.82
2018-11-22T02:48:01.713Z,10.23
2018-11-22T02:50:32.774Z,11.03
2018-11-22T02:53:03.402Z,11.33
2018-11-22T02:55:33.116Z,10.00
2018-11-22T02:58:03.393Z,8.93
2018-11-22T03:00:38.690Z,9.80
2018-11-22T03:03:10.473Z,9.70
2018-11-22T03:05:40.750Z,10.53
2018-11-22T03:08:10.465Z,9.77
2018-11-22T03:10:40.521Z,10.03
2018-11-22T03:13:12.916Z,10.58
2018-11-22T03:15:42.666Z,10.50
2018-11-22T03:18:13.298Z,10.63
2018-11-22T03:20:43.310Z,10.30
2018-11-22T03:23:13.540Z,10.18
2018-11-22T03:25:43.802Z,10.72
2018-11-22T03:28:13.163Z,11.03
2018-11-22T03:30:44.135Z,12.60
2018-11-22T03:33:14.048Z,10.15
2018-11-22T03:35:44.121Z,10.57
2018-11-22T03:38:14.798Z,10.87
2018-11-22T03:40:44.775Z,11.08
2018-11-22T03:43:14.797Z,10.03
2018-11-22T03:45:45.262Z,10.60
2018-11-22T03:48:15.440Z,9.53
2018-11-22T03:50:45.142Z,9.88
2018-11-22T03:53:14.555Z,10.50
2018-11-22T03:55:44.825Z,10.50
2018-11-22T03:58:14.565Z,13.70
2018-11-22T04:00:44.314Z,10.53
2018-11-22T04:03:14.261Z,9.20
2018-11-22T04:05:45.639Z,10.87
2018-11-22T04:08:13.572Z,11.00
2018-11-22T04:10:43.526Z,9.30
2018-11-22T04:13:13.783Z,11.03
2018-11-22T04:15:44.267Z,10.68
2018-11-22T04:18:13.955Z,10.80
2018-11-22T04:20:43.970Z,11.93
2018-11-22T04:23:13.423Z,11.53
2018-11-22T04:25:43.432Z,10.60
2018-11-22T04:28:13.194Z,10.93
2018-11-22T04:30:43.509Z,11.48
2018-11-22T04:33:13.151Z,10.72
2018-11-22T04:35:42.888Z,11.80
2018-11-22T04:38:12.314Z,10.93
2018-11-22T04:40:42.269Z,11.00
2018-11-22T04:43:11.919Z,11.08
2018-11-22T04:45:42.213Z,10.30
2018-11-22T04:48:12.568Z,11.45
2018-11-22T04:50:42.809Z,11.33
2018-11-22T04:53:13.027Z,11.57
2018-11-22T04:56:02.151Z,10.43
2018-11-22T04:58:51.873Z,11.78
2018-11-22T05:01:41.421Z,13.00
2018-11-22T05:04:30.733Z,11.43
2018-11-22T05:07:19.762Z,13.20
2018-11-22T05:10:11.661Z,12.05
2018-11-22T05:13:01.749Z,13.30
2018-11-22T05:15:51.190Z,12.88
2018-11-22T05:18:40.924Z,12.90
2018-11-22T05:21:30.309Z,10.58
2018-11-22T05:24:19.694Z,12.73
2018-11-22T05:27:08.835Z,12.28
2018-11-22T05:29:57.718Z,12.73
2018-11-22T05:32:46.551Z,11.20
2018-11-22T05:35:35.572Z,12.88
2018-11-22T05:38:24.671Z,11.83
2018-11-22T05:41:13.453Z,13.30
2018-11-22T05:44:05.245Z,13.15
2018-11-22T05:46:54.258Z,11.80
2018-11-22T05:49:43.375Z,12.80
2018-11-22T05:52:32.154Z,12.90
2018-11-22T05:55:21.000Z,14.38
2018-11-22T05:57:51.682Z,12.60
2018-11-22T06:00:23.231Z,12.40
2018-11-22T06:02:53.927Z,13.90
2018-11-22T06:05:42.658Z,13.80
2018-11-22T06:08:31.899Z,12.30
2018-11-22T06:11:20.975Z,14.00
2018-11-22T06:14:10.024Z,13.70
2018-11-22T06:16:58.788Z,12.90
2018-11-22T06:19:28.898Z,11.60
2018-11-22T06:22:17.928Z,13.88
2018-11-22T06:25:09.564Z,13.25
2018-11-22T06:27:58.857Z,13.30
2018-11-22T06:30:48.074Z,14.53
2018-11-22T06:33:37.406Z,13.38
2018-11-22T06:36:26.228Z,10.80
2018-11-22T06:39:15.542Z,13.65
2018-11-22T06:42:04.420Z,13.30
2018-11-22T06:44:53.254Z,13.70
2018-11-22T06:47:42.080Z,13.10
2018-11-22T06:50:30.227Z,14.80
2018-11-22T06:53:19.345Z,13.50
2018-11-22T06:56:08.690Z,15.50
2018-11-22T06:58:58.029Z,12.80
2018-11-22T07:01:47.061Z,13.05
2018-11-22T07:04:35.860Z,13.38
2018-11-22T07:07:24.950Z,14.40
2018-11-22T07:10:15.637Z,14.78
2018-11-22T07:13:04.693Z,13.63
2018-11-22T07:15:53.549Z,13.53
2018-11-22T07:18:42.619Z,15.23
2018-11-22T07:21:31.473Z,12.10
2018-11-22T07:24:20.483Z,14.40
2018-11-22T07:27:09.864Z,13.55
2018-11-22T07:29:59.166Z,13.15
2018-11-22T07:32:49.174Z,15.20
2018-11-22T07:35:39.349Z,13.40
2018-11-22T07:38:28.394Z,13.53
2018-11-22T07:41:17.176Z,14.13
2018-11-22T07:44:06.700Z,14.00
2018-11-22T07:46:56.010Z,13.28
2018-11-22T07:49:45.118Z,14.60
2018-11-22T07:52:14.858Z,12.63
2018-11-22T07:54:45.126Z,15.95
2018-11-22T07:57:14.654Z,14.00
2018-11-22T08:00:03.780Z,12.60
2018-11-22T08:02:53.302Z,14.00
2018-11-22T08:05:43.729Z,13.50
2018-11-22T08:08:32.862Z,14.98
2018-11-22T08:11:22.231Z,12.20
2018-11-22T08:14:11.671Z,11.83
2018-11-22T08:17:00.986Z,13.93
2018-11-22T08:19:49.807Z,12.50
2018-11-22T08:22:39.973Z,15.18
2018-11-22T08:25:30.192Z,13.25
2018-11-22T08:28:19.244Z,13.75
2018-11-22T08:31:08.526Z,12.55
2018-11-22T08:33:57.304Z,12.15
2018-11-22T08:36:47.074Z,12.37
2018-11-22T08:39:36.253Z,13.35
2018-11-22T08:42:25.292Z,14.10
2018-11-22T08:45:15.257Z,13.70
2018-11-22T08:48:04.666Z,14.30
2018-11-22T08:50:53.430Z,14.20
2018-11-22T08:53:42.541Z,13.55
2018-11-22T08:56:31.698Z,13.50
2018-11-22T08:59:20.586Z,13.15
2018-11-22T09:02:09.721Z,13.30
2018-11-22T09:04:58.604Z,13.78
2018-11-22T09:07:48.130Z,12.40
2018-11-22T09:10:37.234Z,14.40
2018-11-22T09:13:26.279Z,12.35
2018-11-22T09:16:15.391Z,12.60
2018-11-22T09:19:04.711Z,12.95
2018-11-22T09:21:53.747Z,13.53
2018-11-22T09:24:43.552Z,12.88
2018-11-22T09:27:32.799Z,13.03
2018-11-22T09:30:23.562Z,11.68
2018-11-22T09:33:12.732Z,14.53
2018-11-22T09:36:01.508Z,13.55
2018-11-22T09:38:50.605Z,14.60
2018-11-22T09:41:40.710Z,12.55
2018-11-22T09:44:29.844Z,13.45
2018-11-22T09:47:18.851Z,14.35
2018-11-22T09:50:09.399Z,13.07
2018-11-22T09:52:39.418Z,12.47
2018-11-22T09:55:09.070Z,13.50
2018-11-22T09:57:38.603Z,14.18
2018-11-22T10:00:27.365Z,14.80
2018-11-22T10:03:16.840Z,13.35
2018-11-22T10:06:06.280Z,12.63
2018-11-22T10:08:55.357Z,13.48
2018-11-22T10:11:44.144Z,12.15
2018-11-22T10:14:33.208Z,12.15
2018-11-22T10:17:22.922Z,15.03
2018-11-22T10:20:14.251Z,12.00
2018-11-22T10:23:03.583Z,12.28
2018-11-22T10:25:52.905Z,13.78
2018-11-22T10:28:42.257Z,13.22
2018-11-22T10:31:31.405Z,12.40
2018-11-22T10:34:20.432Z,13.62
2018-11-22T10:37:09.869Z,13.30
2018-11-22T10:39:59.404Z,12.40
2018-11-22T10:42:49.680Z,13.68
2018-11-22T10:45:38.977Z,12.90
2018-11-22T10:48:28.041Z,12.30
2018-11-22T10:51:17.054Z,12.35
2018-11-22T11:09:34.282Z,14.33
2018-11-22T11:12:04.987Z,12.82
2018-11-22T11:33:47.547Z,12.15
2018-11-22T11:36:36.656Z,14.70
2018-11-22T11:39:26.133Z,13.83
2018-11-22T11:42:15.147Z,13.13
2018-11-22T11:44:45.702Z,12.57
2018-11-22T11:47:34.909Z,13.22
2018-11-22T11:50:26.299Z,13.78
2018-11-22T11:53:15.189Z,13.28
2018-11-22T11:55:46.667Z,13.43
2018-11-22T11:58:17.001Z,12.85
2018-11-22T12:01:06.646Z,13.67
2018-11-22T12:03:55.813Z,12.80
2018-11-22T12:06:45.608Z,13.70
2018-11-22T12:09:34.716Z,12.40
2018-11-22T12:12:04.298Z,13.22
2018-11-22T12:14:35.362Z,12.98
2018-11-22T12:17:24.535Z,12.47
2018-11-22T12:20:13.988Z,14.00
2018-11-22T12:23:03.140Z,14.67
2018-11-22T12:25:52.518Z,13.88
2018-11-22T12:28:41.368Z,13.98
2018-11-22T12:31:31.025Z,13.58
2018-11-22T12:34:20.324Z,15.00
2018-11-22T12:37:09.101Z,14.27
2018-11-22T12:39:58.982Z,13.18
2018-11-22T12:42:48.302Z,13.97
2018-11-22T12:45:37.656Z,13.35
2018-11-22T12:48:26.503Z,14.07
2018-11-22T12:51:15.553Z,16.07
2018-11-22T12:54:04.455Z,13.03
2018-11-22T12:56:54.234Z,13.70
2018-11-22T12:59:43.101Z,13.58
2018-11-22T13:02:32.215Z,15.20
2018-11-22T13:05:21.465Z,14.30
2018-11-22T13:08:10.337Z,13.90
2018-11-22T13:10:59.167Z,13.93
2018-11-22T13:13:48.575Z,15.18
2018-11-22T13:16:37.392Z,14.58
2018-11-22T14:18:44.984Z,13.45
2018-11-22T14:21:34.089Z,14.53
2018-11-22T14:47:00.527Z,14.13
2018-11-22T14:49:50.035Z,15.78
2018-11-22T14:52:20.164Z,14.10
2018-11-22T14:54:49.888Z,13.83
2018-11-22T14:57:39.374Z,14.73
2018-11-22T15:09:01.536Z,15.20
2018-11-22T15:17:21.765Z,14.20
2018-11-22T15:19:51.459Z,15.15
2018-11-22T15:22:41.193Z,12.30
2018-11-22T15:25:30.824Z,12.55
2018-11-22T15:28:20.067Z,14.90
2018-11-22T15:31:09.569Z,14.60
2018-11-22T15:33:39.882Z,13.98
2018-11-22T15:36:09.957Z,13.83
2018-11-22T15:38:59.220Z,12.70
2018-11-22T15:41:48.111Z,15.85
2018-11-22T15:44:37.258Z,14.00
2018-11-22T15:47:26.459Z,13.43
2018-11-22T15:50:35.029Z,14.10
2018-11-22T15:53:24.149Z,12.67
2018-11-22T16:02:16.915Z,13.13
2018-11-22T16:05:07.586Z,16.13
2018-11-22T16:07:57.182Z,12.35
2018-11-22T16:10:46.653Z,14.98
2018-11-22T16:13:35.921Z,14.38
2018-11-22T16:16:25.312Z,12.60
2018-11-22T16:19:14.784Z,11.93
2018-11-22T16:22:04.010Z,14.70
2018-11-22T16:24:53.731Z,14.43
2018-11-22T16:27:43.086Z,15.15
2018-11-22T16:30:33.014Z,13.88
2018-11-22T16:33:22.919Z,13.05
2018-11-22T16:36:12.994Z,15.00
2018-11-22T16:39:02.648Z,14.07
2018-11-22T16:41:51.872Z,13.78
2018-11-22T16:44:42.038Z,15.85
2018-11-22T16:47:30.995Z,14.60
2018-11-22T16:50:21.664Z,14.57
2018-11-22T16:53:12.029Z,12.75
2018-11-22T16:55:41.737Z,14.63
2018-11-22T16:58:11.570Z,15.05
2018-11-22T17:00:41.680Z,14.05
2018-11-22T17:03:14.585Z,13.28
2018-11-22T17:05:45.428Z,13.72
2018-11-22T17:08:16.874Z,12.33
2018-11-22T17:10:46.561Z,13.75
2018-11-22T17:13:16.561Z,13.68
2018-11-22T17:15:46.319Z,13.30
2018-11-22T17:18:16.350Z,15.60
2018-11-22T17:20:46.230Z,13.72
2018-11-22T17:23:16.172Z,13.93
2018-11-22T17:25:45.925Z,12.53
2018-11-22T17:28:16.359Z,12.58
2018-11-22T17:30:46.442Z,13.18
2018-11-22T17:33:16.657Z,12.93
2018-11-22T17:35:46.562Z,13.50
2018-11-22T17:38:16.293Z,15.50
2018-11-22T17:40:47.818Z,13.80
2018-11-22T17:43:18.472Z,13.05
2018-11-22T17:45:49.384Z,12.90
2018-11-22T17:48:18.756Z,13.88
2018-11-22T17:50:49.055Z,12.63
2018-11-22T17:53:18.631Z,13.35
2018-11-22T17:55:49.000Z,13.38
2018-11-22T17:58:19.028Z,12.73
2018-11-22T18:00:52.363Z,13.43
2018-11-22T18:03:22.221Z,12.50
2018-11-22T18:05:53.020Z,12.87
2018-11-22T18:08:22.431Z,13.08
2018-11-22T18:10:52.396Z,14.25
2018-11-22T18:13:22.378Z,13.62
2018-11-22T18:15:59.025Z,14.70
2018-11-22T18:18:29.351Z,13.27
2018-11-22T18:20:59.466Z,13.32
2018-11-22T18:23:29.150Z,11.90
2018-11-22T18:25:59.292Z,13.18
2018-11-22T18:28:29.544Z,13.00
2018-11-22T18:30:59.928Z,12.98
2018-11-22T18:33:30.197Z,12.07
2018-11-22T18:35:59.936Z,10.70
2018-11-22T18:38:29.982Z,12.00
2018-11-22T18:41:00.451Z,11.43
2018-11-22T18:43:30.597Z,12.28
2018-11-22T18:46:00.895Z,13.48
2018-11-22T18:48:30.858Z,12.28
2018-11-22T18:51:00.261Z,12.35
2018-11-22T18:53:29.741Z,12.82
2018-11-22T18:55:59.486Z,13.27
2018-11-22T18:58:29.590Z,12.43
2018-11-22T19:00:59.009Z,13.73
2018-11-22T19:03:29.101Z,11.55
2018-11-22T19:05:59.203Z,13.20
2018-11-22T19:08:28.701Z,14.25
2018-11-22T19:10:58.476Z,13.58
2018-11-22T19:13:27.860Z,13.57
2018-11-22T19:15:58.073Z,13.50
2018-11-22T19:18:28.200Z,13.48
2018-11-22T19:20:59.546Z,13.50
2018-11-22T19:23:29.695Z,12.10
2018-11-22T19:25:59.110Z,12.23
2018-11-22T19:28:29.260Z,12.73
2018-11-22T19:30:59.508Z,14.15
2018-11-22T19:33:29.472Z,13.10
2018-11-22T19:35:59.327Z,11.93
2018-11-22T19:38:28.836Z,13.27
2018-11-22T19:40:58.407Z,12.98
2018-11-22T19:43:29.097Z,13.13
2018-11-22T19:45:59.004Z,12.85
2018-11-22T19:48:29.491Z,13.70
2018-11-22T19:51:05.339Z,12.10
2018-11-22T19:53:30.058Z,14.45
2018-11-22T19:56:00.059Z,14.43
2018-11-22T19:58:30.212Z,12.60
2018-11-22T20:01:03.576Z,13.00
2018-11-22T20:03:30.058Z,11.73
2018-11-22T20:06:00.205Z,12.95
2018-11-22T20:08:30.838Z,14.93
2018-11-22T20:11:00.384Z,14.05
2018-11-22T20:13:31.021Z,15.68
2018-11-22T20:16:01.919Z,15.30
2018-11-22T20:18:31.787Z,15.05
2018-11-22T20:21:02.294Z,14.90
2018-11-22T20:23:31.981Z,16.05
2018-11-22T20:26:02.378Z,13.53
2018-11-22T20:28:32.647Z,15.35
2018-11-22T20:31:02.701Z,14.75
2018-11-22T20:33:32.501Z,15.38
2018-11-22T20:36:02.586Z,15.07
2018-11-22T20:38:32.615Z,14.73
2018-11-22T20:41:03.011Z,13.25
2018-11-22T20:43:33.744Z,15.40
2018-11-22T20:46:04.165Z,15.35
2018-11-22T20:48:34.439Z,14.83
2018-11-22T20:51:04.857Z,15.20
2018-11-22T20:53:34.622Z,16.65
2018-11-22T20:56:04.338Z,15.10
2018-11-22T20:58:34.406Z,14.85
2018-11-22T21:01:03.794Z,15.07
2018-11-22T21:03:33.871Z,15.35
2018-11-22T21:06:03.853Z,18.50
2018-11-22T21:08:33.345Z,16.25
2018-11-22T21:11:03.578Z,15.38
2018-11-22T21:13:32.967Z,15.40
2018-11-22T21:16:02.794Z,15.20
2018-11-22T21:18:32.733Z,14.98
2018-11-22T21:21:02.223Z,14.73
2018-11-22T21:23:31.998Z,16.75
2018-11-22T21:26:01.406Z,17.82
2018-11-22T21:28:31.612Z,16.00
2018-11-22T21:31:01.470Z,15.30
2018-11-22T21:33:32.024Z,14.93
2018-11-22T21:36:02.708Z,14.80
2018-11-22T21:38:32.445Z,13.85
2018-11-22T21:41:02.132Z,16.07
2018-11-22T21:43:51.544Z,17.55
2018-11-22T21:49:00.225Z,15.58
2018-11-22T21:51:29.753Z,16.30
2018-11-22T21:53:59.286Z,16.05
2018-11-22T21:56:28.758Z,15.50
2018-11-22T21:58:58.326Z,16.10
2018-11-22T22:01:28.063Z,15.78
2018-11-22T22:03:57.524Z,15.53
2018-11-22T22:06:26.911Z,16.60
2018-11-22T22:08:56.376Z,16.62
2018-11-22T22:11:25.841Z,16.40
2018-11-22T22:13:55.287Z,16.85
2018-11-22T22:16:24.861Z,15.32
2018-11-22T22:18:54.273Z,15.48
2018-11-22T22:21:23.746Z,20.00
2018-11-22T22:23:53.204Z,18.70
2018-11-22T22:26:22.639Z,18.48
2018-11-22T22:28:53.016Z,16.70
2018-11-22T22:31:22.583Z,18.27
2018-11-22T22:33:52.113Z,17.60
2018-11-22T22:36:21.628Z,15.45
2018-11-22T22:38:51.153Z,16.95
2018-11-22T22:41:20.642Z,17.42
2018-11-22T22:43:50.194Z,18.10
2018-11-22T22:46:19.608Z,16.17
2018-11-22T22:48:49.326Z,18.35
2018-11-22T22:51:18.774Z,15.90
2018-11-22T22:53:48.361Z,18.85
2018-11-22T22:56:17.855Z,18.70
2018-11-22T22:58:47.373Z,17.05
2018-11-22T23:01:16.874Z,19.80
2018-11-22T23:03:46.439Z,19.77
2018-11-22T23:06:15.838Z,16.45
2018-11-22T23:08:45.296Z,17.37
2018-11-22T23:11:14.763Z,18.23
2018-11-22T23:13:44.438Z,16.60
2018-11-22T23:16:13.924Z,18.37
2018-11-22T23:18:43.380Z,18.30
2018-11-22T23:21:12.839Z,17.23
2018-11-22T23:23:42.242Z,19.20
2018-11-22T23:26:11.655Z,17.10
2018-11-22T23:28:41.177Z,17.62
2018-11-22T23:31:10.624Z,17.20
2018-11-22T23:33:40.091Z,20.17
2018-11-22T23:36:09.647Z,19.10
2018-11-22T23:38:39.143Z,17.60
2018-11-22T23:41:08.579Z,18.73
2018-11-22T23:43:38.033Z,17.30
2018-11-22T23:46:07.591Z,18.57
2018-11-22T23:48:37.113Z,18.42
2018-11-22T23:51:06.583Z,20.37
2018-11-22T23:53:36.009Z,18.35
2018-11-22T23:56:05.905Z,19.17
2018-11-22T23:58:35.323Z,19.47
